sensor_id;sensor_type;location;lat;lon;timestamp;temperature;humidity
21823;DHT22;11074;48.596;9.238;2022-09-01T00:01:41;14.70;99.90
21823;DHT22;11074;48.596;9.238;2022-09-01T00:04:10;14.70;99.90
21823;DHT22;11074;48.596;9.238;2022-09-01T00:06:38;14.70;99.90
21823;DHT22;11074;48.596;9.238;2022-09-01T00:09:08;14.80;99.90
21823;DHT22;11074;48.596;9.238;2022-09-01T00:11:35;14.70;99.90
21823;DHT22;11074;48.596;9.238;2022-09-01T00:14:03;14.60;99.90
21823;DHT22;11074;48.596;9.238;2022-09-01T00:16:31;14.50;99.90
21823;DHT22;11074;48.596;9.238;2022-09-01T00:18:58;14.60;99.90
21823;DHT22;11074;48.596;9.238;2022-09-01T00:21:33;14.60;99.90
21823;DHT22;11074;48.596;9.238;2022-09-01T00:24:03;14.60;99.90
21823;DHT22;11074;48.596;9.238;2022-09-01T00:26:29;14.50;99.90
21823;DHT22;11074;48.596;9.238;2022-09-01T00:28:55;14.40;99.90
21823;DHT22;11074;48.596;9.238;2022-09-01T00:31:21;14.40;99.90
21823;DHT22;11074;48.596;9.238;2022-09-01T00:33:47;14.50;99.90
21823;DHT22;11074;48.596;9.238;2022-09-01T00:36:15;14.60;99.90
21823;DHT22;11074;48.596;9.238;2022-09-01T00:38:41;14.70;99.90
21823;DHT22;11074;48.596;9.238;2022-09-01T00:41:07;14.70;99.90
21823;DHT22;11074;48.596;9.238;2022-09-01T00:43:43;14.70;99.90
21823;DHT22;11074;48.596;9.238;2022-09-01T00:46:23;14.60;99.90
21823;DHT22;11074;48.596;9.238;2022-09-01T00:48:55;14.40;99.90
21823;DHT22;11074;48.596;9.238;2022-09-01T00:51:25;14.40;99.90
21823;DHT22;11074;48.596;9.238;2022-09-01T00:53:53;14.50;99.90
21823;DHT22;11074;48.596;9.238;2022-09-01T00:56:21;14.60;99.90
21823;DHT22;11074;48.596;9.238;2022-09-01T00:58:48;14.50;99.90
21823;DHT22;11074;48.596;9.238;2022-09-01T01:01:16;14.30;99.90
21823;DHT22;11074;48.596;9.238;2022-09-01T01:03:42;14.30;99.90
21823;DHT22;11074;48.596;9.238;2022-09-01T01:06:10;14.40;99.90
21823;DHT22;11074;48.596;9.238;2022-09-01T01:08:40;14.50;99.90
21823;DHT22;11074;48.596;9.238;2022-09-01T01:11:21;14.50;99.90
21823;DHT22;11074;48.596;9.238;2022-09-01T01:13:55;14.60;99.90
21823;DHT22;11074;48.596;9.238;2022-09-01T01:16:27;14.40;99.90
21823;DHT22;11074;48.596;9.238;2022-09-01T01:18:54;14.40;99.90
21823;DHT22;11074;48.596;9.238;2022-09-01T01:21:25;14.50;99.90
21823;DHT22;11074;48.596;9.238;2022-09-01T01:24:27;14.50;99.90
21823;DHT22;11074;48.596;9.238;2022-09-01T01:26:56;14.60;99.90
21823;DHT22;11074;48.596;9.238;2022-09-01T01:29:21;14.60;99.90
21823;DHT22;11074;48.596;9.238;2022-09-01T01:31:47;14.60;99.90
21823;DHT22;11074;48.596;9.238;2022-09-01T01:34:14;14.60;99.90
21823;DHT22;11074;48.596;9.238;2022-09-01T01:36:41;14.60;99.90
21823;DHT22;11074;48.596;9.238;2022-09-01T01:39:10;14.60;99.90
21823;DHT22;11074;48.596;9.238;2022-09-01T01:41:39;14.60;99.90
21823;DHT22;11074;48.596;9.238;2022-09-01T01:44:11;14.60;99.90
21823;DHT22;11074;48.596;9.238;2022-09-01T01:46:42;14.60;99.90
21823;DHT22;11074;48.596;9.238;2022-09-01T01:49:11;14.50;99.90
21823;DHT22;11074;48.596;9.238;2022-09-01T01:51:43;14.50;99.90
21823;DHT22;11074;48.596;9.238;2022-09-01T01:54:09;14.50;99.90
21823;DHT22;11074;48.596;9.238;2022-09-01T01:56:35;14.50;99.90
21823;DHT22;11074;48.596;9.238;2022-09-01T01:59:04;14.50;99.90
21823;DHT22;11074;48.596;9.238;2022-09-01T02:01:31;14.50;99.90
21823;DHT22;11074;48.596;9.238;2022-09-01T02:03:59;14.40;99.90
21823;DHT22;11074;48.596;9.238;2022-09-01T02:06:26;14.40;99.90
21823;DHT22;11074;48.596;9.238;2022-09-01T02:08:54;14.30;99.90
21823;DHT22;11074;48.596;9.238;2022-09-01T02:11:23;14.20;99.90
21823;DHT22;11074;48.596;9.238;2022-09-01T02:13:53;14.20;99.90
21823;DHT22;11074;48.596;9.238;2022-09-01T02:16:22;14.20;99.90
21823;DHT22;11074;48.596;9.238;2022-09-01T02:18:50;14.20;99.90
21823;DHT22;11074;48.596;9.238;2022-09-01T02:21:21;14.30;99.90
21823;DHT22;11074;48.596;9.238;2022-09-01T02:23:54;14.20;99.90
21823;DHT22;11074;48.596;9.238;2022-09-01T02:26:29;14.20;99.90
21823;DHT22;11074;48.596;9.238;2022-09-01T02:29:10;14.20;99.90
21823;DHT22;11074;48.596;9.238;2022-09-01T02:31:42;14.10;99.90
21823;DHT22;11074;48.596;9.238;2022-09-01T02:34:10;14.00;99.90
21823;DHT22;11074;48.596;9.238;2022-09-01T02:36:40;14.10;99.90
21823;DHT22;11074;48.596;9.238;2022-09-01T02:39:21;14.10;99.90
21823;DHT22;11074;48.596;9.238;2022-09-01T02:41:54;14.00;99.90
21823;DHT22;11074;48.596;9.238;2022-09-01T02:44:21;14.10;99.90
21823;DHT22;11074;48.596;9.238;2022-09-01T02:46:49;14.10;99.90
21823;DHT22;11074;48.596;9.238;2022-09-01T02:49:18;14.10;99.90
21823;DHT22;11074;48.596;9.238;2022-09-01T02:51:48;14.10;99.90
21823;DHT22;11074;48.596;9.238;2022-09-01T02:54:19;14.10;99.90
21823;DHT22;11074;48.596;9.238;2022-09-01T02:56:47;14.10;99.90
21823;DHT22;11074;48.596;9.238;2022-09-01T02:59:19;14.20;99.90
21823;DHT22;11074;48.596;9.238;2022-09-01T03:01:48;14.20;99.90
21823;DHT22;11074;48.596;9.238;2022-09-01T03:04:15;14.20;99.90
21823;DHT22;11074;48.596;9.238;2022-09-01T03:06:42;14.00;99.90
21823;DHT22;11074;48.596;9.238;2022-09-01T03:09:11;13.90;99.90
21823;DHT22;11074;48.596;9.238;2022-09-01T03:11:41;13.80;99.90
21823;DHT22;11074;48.596;9.238;2022-09-01T03:14:10;13.80;99.90
21823;DHT22;11074;48.596;9.238;2022-09-01T03:16:36;13.90;99.90
21823;DHT22;11074;48.596;9.238;2022-09-01T03:19:04;13.90;99.90
21823;DHT22;11074;48.596;9.238;2022-09-01T03:21:35;14.00;99.90
21823;DHT22;11074;48.596;9.238;2022-09-01T03:24:04;14.00;99.90
21823;DHT22;11074;48.596;9.238;2022-09-01T03:26:30;13.70;99.90
21823;DHT22;11074;48.596;9.238;2022-09-01T03:28:57;13.50;99.90
21823;DHT22;11074;48.596;9.238;2022-09-01T03:31:23;13.40;99.90
21823;DHT22;11074;48.596;9.238;2022-09-01T03:33:52;13.30;99.90
21823;DHT22;11074;48.596;9.238;2022-09-01T03:36:25;13.20;99.90
21823;DHT22;11074;48.596;9.238;2022-09-01T03:38:53;13.20;99.90
21823;DHT22;11074;48.596;9.238;2022-09-01T03:41:23;13.00;99.90
21823;DHT22;11074;48.596;9.238;2022-09-01T03:43:50;13.20;99.90
21823;DHT22;11074;48.596;9.238;2022-09-01T03:46:20;13.40;99.90
21823;DHT22;11074;48.596;9.238;2022-09-01T03:48:54;13.40;99.90
21823;DHT22;11074;48.596;9.238;2022-09-01T03:51:23;13.30;99.90
21823;DHT22;11074;48.596;9.238;2022-09-01T03:53:51;13.40;99.90
21823;DHT22;11074;48.596;9.238;2022-09-01T03:56:19;13.50;99.90
21823;DHT22;11074;48.596;9.238;2022-09-01T03:58:45;13.60;99.90
21823;DHT22;11074;48.596;9.238;2022-09-01T04:01:12;13.70;99.90
21823;DHT22;11074;48.596;9.238;2022-09-01T04:03:39;13.80;99.90
21823;DHT22;11074;48.596;9.238;2022-09-01T04:06:07;13.80;99.90
21823;DHT22;11074;48.596;9.238;2022-09-01T04:08:34;13.80;99.90
21823;DHT22;11074;48.596;9.238;2022-09-01T04:11:11;13.90;99.90
21823;DHT22;11074;48.596;9.238;2022-09-01T04:13:41;14.00;99.90
21823;DHT22;11074;48.596;9.238;2022-09-01T04:16:25;13.80;99.90
21823;DHT22;11074;48.596;9.238;2022-09-01T04:19:13;13.70;99.90
21823;DHT22;11074;48.596;9.238;2022-09-01T04:21:48;13.70;99.90
21823;DHT22;11074;48.596;9.238;2022-09-01T04:24:17;13.80;99.90
21823;DHT22;11074;48.596;9.238;2022-09-01T04:26:44;14.00;99.90
21823;DHT22;11074;48.596;9.238;2022-09-01T04:29:11;14.00;99.90
21823;DHT22;11074;48.596;9.238;2022-09-01T04:31:37;13.90;99.90
21823;DHT22;11074;48.596;9.238;2022-09-01T04:34:05;14.00;99.90
21823;DHT22;11074;48.596;9.238;2022-09-01T04:36:36;14.10;99.90
21823;DHT22;11074;48.596;9.238;2022-09-01T04:39:03;14.10;99.90
21823;DHT22;11074;48.596;9.238;2022-09-01T04:41:35;14.10;99.90
21823;DHT22;11074;48.596;9.238;2022-09-01T04:44:03;13.90;99.90
21823;DHT22;11074;48.596;9.238;2022-09-01T04:46:33;13.90;99.90
21823;DHT22;11074;48.596;9.238;2022-09-01T04:49:03;13.90;99.90
21823;DHT22;11074;48.596;9.238;2022-09-01T04:51:43;13.80;99.90
21823;DHT22;11074;48.596;9.238;2022-09-01T04:54:14;13.90;99.90
21823;DHT22;11074;48.596;9.238;2022-09-01T04:56:43;13.90;99.90
21823;DHT22;11074;48.596;9.238;2022-09-01T04:59:12;14.00;99.90
21823;DHT22;11074;48.596;9.238;2022-09-01T05:01:39;13.90;99.90
21823;DHT22;11074;48.596;9.238;2022-09-01T05:04:10;13.90;99.90
21823;DHT22;11074;48.596;9.238;2022-09-01T05:06:40;14.00;99.90
21823;DHT22;11074;48.596;9.238;2022-09-01T05:09:09;14.00;99.90
21823;DHT22;11074;48.596;9.238;2022-09-01T05:11:37;14.00;99.90
21823;DHT22;11074;48.596;9.238;2022-09-01T05:14:05;13.80;99.90
21823;DHT22;11074;48.596;9.238;2022-09-01T05:16:32;13.90;99.90
21823;DHT22;11074;48.596;9.238;2022-09-01T05:19:00;13.90;99.90
21823;DHT22;11074;48.596;9.238;2022-09-01T05:21:27;13.90;99.90
21823;DHT22;11074;48.596;9.238;2022-09-01T05:23:55;13.80;99.90
21823;DHT22;11074;48.596;9.238;2022-09-01T05:26:27;13.90;99.90
21823;DHT22;11074;48.596;9.238;2022-09-01T05:29:02;13.90;99.90
21823;DHT22;11074;48.596;9.238;2022-09-01T05:31:34;13.80;99.90
21823;DHT22;11074;48.596;9.238;2022-09-01T05:34:03;13.70;99.90
21823;DHT22;11074;48.596;9.238;2022-09-01T05:36:29;13.70;99.90
21823;DHT22;11074;48.596;9.238;2022-09-01T05:38:59;13.80;99.90
21823;DHT22;11074;48.596;9.238;2022-09-01T05:41:26;13.90;99.90
21823;DHT22;11074;48.596;9.238;2022-09-01T05:43:53;13.90;99.90
21823;DHT22;11074;48.596;9.238;2022-09-01T05:46:20;13.90;99.90
21823;DHT22;11074;48.596;9.238;2022-09-01T05:48:52;13.80;99.90
21823;DHT22;11074;48.596;9.238;2022-09-01T05:51:22;13.70;99.90
21823;DHT22;11074;48.596;9.238;2022-09-01T05:53:52;13.70;99.90
21823;DHT22;11074;48.596;9.238;2022-09-01T05:56:23;13.70;99.90
21823;DHT22;11074;48.596;9.238;2022-09-01T05:58:51;13.70;99.90
21823;DHT22;11074;48.596;9.238;2022-09-01T06:01:19;13.70;99.90
21823;DHT22;11074;48.596;9.238;2022-09-01T06:03:50;13.80;99.90
21823;DHT22;11074;48.596;9.238;2022-09-01T06:06:22;13.90;99.90
21823;DHT22;11074;48.596;9.238;2022-09-01T06:08:50;14.00;99.90
21823;DHT22;11074;48.596;9.238;2022-09-01T06:11:17;14.10;99.90
21823;DHT22;11074;48.596;9.238;2022-09-01T06:13:45;14.20;99.90
21823;DHT22;11074;48.596;9.238;2022-09-01T06:16:16;14.20;99.90
21823;DHT22;11074;48.596;9.238;2022-09-01T06:18:43;14.30;99.90
21823;DHT22;11074;48.596;9.238;2022-09-01T06:21:11;14.30;99.90
21823;DHT22;11074;48.596;9.238;2022-09-01T06:23:41;14.40;99.90
21823;DHT22;11074;48.596;9.238;2022-09-01T06:26:19;14.40;99.90
21823;DHT22;11074;48.596;9.238;2022-09-01T06:28:54;14.50;99.90
21823;DHT22;11074;48.596;9.238;2022-09-01T06:31:23;14.50;99.90
21823;DHT22;11074;48.596;9.238;2022-09-01T06:33:51;14.50;99.90
21823;DHT22;11074;48.596;9.238;2022-09-01T06:36:22;14.50;99.90
21823;DHT22;11074;48.596;9.238;2022-09-01T06:38:50;14.50;99.90
21823;DHT22;11074;48.596;9.238;2022-09-01T06:41:19;14.70;99.90
21823;DHT22;11074;48.596;9.238;2022-09-01T06:43:46;14.70;99.90
21823;DHT22;11074;48.596;9.238;2022-09-01T06:46:17;14.70;99.90
21823;DHT22;11074;48.596;9.238;2022-09-01T06:48:45;14.80;99.90
21823;DHT22;11074;48.596;9.238;2022-09-01T06:51:17;14.80;99.90
21823;DHT22;11074;48.596;9.238;2022-09-01T06:53:46;14.90;99.90
21823;DHT22;11074;48.596;9.238;2022-09-01T06:56:18;15.10;99.90
21823;DHT22;11074;48.596;9.238;2022-09-01T06:58:45;15.20;99.90
21823;DHT22;11074;48.596;9.238;2022-09-01T07:01:16;15.20;99.90
21823;DHT22;11074;48.596;9.238;2022-09-01T07:03:51;15.40;99.90
21823;DHT22;11074;48.596;9.238;2022-09-01T07:06:20;15.40;99.90
21823;DHT22;11074;48.596;9.238;2022-09-01T07:08:50;15.50;99.90
21823;DHT22;11074;48.596;9.238;2022-09-01T07:11:20;15.50;99.90
21823;DHT22;11074;48.596;9.238;2022-09-01T07:13:55;15.60;99.90
21823;DHT22;11074;48.596;9.238;2022-09-01T07:16:24;15.70;99.90
21823;DHT22;11074;48.596;9.238;2022-09-01T07:18:54;15.70;99.90
21823;DHT22;11074;48.596;9.238;2022-09-01T07:21:23;15.70;99.90
21823;DHT22;11074;48.596;9.238;2022-09-01T07:23:50;15.70;99.90
21823;DHT22;11074;48.596;9.238;2022-09-01T07:26:17;15.80;99.90
21823;DHT22;11074;48.596;9.238;2022-09-01T07:28:44;15.80;99.90
21823;DHT22;11074;48.596;9.238;2022-09-01T07:31:22;16.00;99.90
21823;DHT22;11074;48.596;9.238;2022-09-01T07:33:52;16.10;99.90
21823;DHT22;11074;48.596;9.238;2022-09-01T07:36:20;16.10;99.90
21823;DHT22;11074;48.596;9.238;2022-09-01T07:38:46;16.20;99.90
21823;DHT22;11074;48.596;9.238;2022-09-01T07:41:19;16.30;99.90
21823;DHT22;11074;48.596;9.238;2022-09-01T07:43:47;16.30;99.90
21823;DHT22;11074;48.596;9.238;2022-09-01T07:46:15;16.40;99.90
21823;DHT22;11074;48.596;9.238;2022-09-01T07:48:41;16.40;99.90
21823;DHT22;11074;48.596;9.238;2022-09-01T07:51:11;16.50;99.90
21823;DHT22;11074;48.596;9.238;2022-09-01T07:53:38;16.60;99.90
21823;DHT22;11074;48.596;9.238;2022-09-01T07:56:07;16.70;99.90
21823;DHT22;11074;48.596;9.238;2022-09-01T07:58:35;16.80;99.90
21823;DHT22;11074;48.596;9.238;2022-09-01T08:01:10;16.90;99.90
21823;DHT22;11074;48.596;9.238;2022-09-01T08:03:46;17.00;99.90
21823;DHT22;11074;48.596;9.238;2022-09-01T08:06:16;17.00;99.90
21823;DHT22;11074;48.596;9.238;2022-09-01T08:08:48;17.10;99.90
21823;DHT22;11074;48.596;9.238;2022-09-01T08:11:23;17.20;99.90
21823;DHT22;11074;48.596;9.238;2022-09-01T08:13:52;17.30;99.90
21823;DHT22;11074;48.596;9.238;2022-09-01T08:16:18;17.50;99.90
21823;DHT22;11074;48.596;9.238;2022-09-01T08:18:45;17.60;99.90
21823;DHT22;11074;48.596;9.238;2022-09-01T08:21:12;17.70;99.90
21823;DHT22;11074;48.596;9.238;2022-09-01T08:23:40;17.80;99.90
21823;DHT22;11074;48.596;9.238;2022-09-01T08:26:17;17.90;99.90
21823;DHT22;11074;48.596;9.238;2022-09-01T08:28:44;18.00;99.90
21823;DHT22;11074;48.596;9.238;2022-09-01T08:31:12;18.10;99.90
21823;DHT22;11074;48.596;9.238;2022-09-01T08:33:40;18.20;99.90
21823;DHT22;11074;48.596;9.238;2022-09-01T08:36:09;18.20;99.90
21823;DHT22;11074;48.596;9.238;2022-09-01T08:38:38;18.30;99.90
21823;DHT22;11074;48.596;9.238;2022-09-01T08:41:17;18.40;99.90
21823;DHT22;11074;48.596;9.238;2022-09-01T08:44:12;18.60;99.90
21823;DHT22;11074;48.596;9.238;2022-09-01T08:46:42;18.70;99.90
21823;DHT22;11074;48.596;9.238;2022-09-01T08:49:14;18.80;99.90
21823;DHT22;11074;48.596;9.238;2022-09-01T08:51:50;18.90;99.90
21823;DHT22;11074;48.596;9.238;2022-09-01T08:54:31;18.90;99.90
21823;DHT22;11074;48.596;9.238;2022-09-01T08:57:18;18.90;99.90
21823;DHT22;11074;48.596;9.238;2022-09-01T08:59:55;19.00;99.90
21823;DHT22;11074;48.596;9.238;2022-09-01T09:02:46;18.90;99.90
21823;DHT22;11074;48.596;9.238;2022-09-01T09:17:09;19.10;99.90
21823;DHT22;11074;48.596;9.238;2022-09-01T09:19:40;19.10;99.90
21823;DHT22;11074;48.596;9.238;2022-09-01T09:22:13;19.20;99.90
21823;DHT22;11074;48.596;9.238;2022-09-01T09:27:37;19.20;99.90
21823;DHT22;11074;48.596;9.238;2022-09-01T09:30:14;19.30;99.90
21823;DHT22;11074;48.596;9.238;2022-09-01T09:32:50;19.40;99.90
21823;DHT22;11074;48.596;9.238;2022-09-01T09:35:30;19.40;99.90
21823;DHT22;11074;48.596;9.238;2022-09-01T09:43:34;19.60;99.90
21823;DHT22;11074;48.596;9.238;2022-09-01T09:52:03;19.80;99.90
21823;DHT22;11074;48.596;9.238;2022-09-01T09:54:56;19.80;99.90
21823;DHT22;11074;48.596;9.238;2022-09-01T09:57:24;19.90;99.90
21823;DHT22;11074;48.596;9.238;2022-09-01T10:00:05;20.00;99.90
21823;DHT22;11074;48.596;9.238;2022-09-01T10:02:39;20.00;99.90
21823;DHT22;11074;48.596;9.238;2022-09-01T10:07:58;19.90;99.90
21823;DHT22;11074;48.596;9.238;2022-09-01T10:10:30;19.90;99.90
21823;DHT22;11074;48.596;9.238;2022-09-01T10:13:12;20.00;99.90
21823;DHT22;11074;48.596;9.238;2022-09-01T10:15:48;20.10;99.90
21823;DHT22;11074;48.596;9.238;2022-09-01T10:18:22;20.10;99.90
21823;DHT22;11074;48.596;9.238;2022-09-01T10:21:00;20.10;99.90
21823;DHT22;11074;48.596;9.238;2022-09-01T10:23:33;20.20;99.90
21823;DHT22;11074;48.596;9.238;2022-09-01T10:26:08;20.20;99.90
21823;DHT22;11074;48.596;9.238;2022-09-01T10:28:46;20.20;99.90
21823;DHT22;11074;48.596;9.238;2022-09-01T10:31:25;20.20;99.90
21823;DHT22;11074;48.596;9.238;2022-09-01T10:33:52;20.20;99.90
21823;DHT22;11074;48.596;9.238;2022-09-01T10:36:19;20.30;99.90
21823;DHT22;11074;48.596;9.238;2022-09-01T10:38:46;20.30;99.90
21823;DHT22;11074;48.596;9.238;2022-09-01T10:41:47;20.20;99.90
21823;DHT22;11074;48.596;9.238;2022-09-01T10:47:32;20.50;99.90
21823;DHT22;11074;48.596;9.238;2022-09-01T10:55:37;20.60;99.90
21823;DHT22;11074;48.596;9.238;2022-09-01T11:01:13;20.70;99.90
21823;DHT22;11074;48.596;9.238;2022-09-01T11:03:50;20.90;99.90
21823;DHT22;11074;48.596;9.238;2022-09-01T11:09:16;21.10;99.90
21823;DHT22;11074;48.596;9.238;2022-09-01T11:14:52;21.20;99.90
21823;DHT22;11074;48.596;9.238;2022-09-01T11:17:24;21.20;99.90
21823;DHT22;11074;48.596;9.238;2022-09-01T11:19:59;21.30;99.90
21823;DHT22;11074;48.596;9.238;2022-09-01T11:25:38;21.40;99.90
21823;DHT22;11074;48.596;9.238;2022-09-01T11:36:33;21.70;99.90
21823;DHT22;11074;48.596;9.238;2022-09-01T11:39:30;21.60;99.90
21823;DHT22;11074;48.596;9.238;2022-09-01T11:47:39;21.90;99.90
21823;DHT22;11074;48.596;9.238;2022-09-01T11:50:21;22.00;99.90
21823;DHT22;11074;48.596;9.238;2022-09-01T11:55:34;22.30;99.90
21823;DHT22;11074;48.596;9.238;2022-09-01T11:58:03;22.50;99.90
21823;DHT22;11074;48.596;9.238;2022-09-01T12:00:33;22.40;99.90
21823;DHT22;11074;48.596;9.238;2022-09-01T12:03:18;22.40;99.90
21823;DHT22;11074;48.596;9.238;2022-09-01T12:05:57;22.50;99.90
21823;DHT22;11074;48.596;9.238;2022-09-01T12:08:29;22.60;99.90
21823;DHT22;11074;48.596;9.238;2022-09-01T12:13:35;22.70;99.90
21823;DHT22;11074;48.596;9.238;2022-09-01T12:16:05;22.50;99.90
21823;DHT22;11074;48.596;9.238;2022-09-01T12:18:35;22.30;99.90
21823;DHT22;11074;48.596;9.238;2022-09-01T12:24:20;22.40;99.90
21823;DHT22;11074;48.596;9.238;2022-09-01T12:26:50;22.60;99.90
21823;DHT22;11074;48.596;9.238;2022-09-01T12:29:19;22.70;99.90
21823;DHT22;11074;48.596;9.238;2022-09-01T12:31:47;22.80;99.90
21823;DHT22;11074;48.596;9.238;2022-09-01T12:34:27;22.90;99.90
21823;DHT22;11074;48.596;9.238;2022-09-01T12:39:45;22.60;99.90
21823;DHT22;11074;48.596;9.238;2022-09-01T12:42:30;22.60;99.90
21823;DHT22;11074;48.596;9.238;2022-09-01T12:45:04;22.80;99.90
21823;DHT22;11074;48.596;9.238;2022-09-01T12:49:58;23.10;99.90
21823;DHT22;11074;48.596;9.238;2022-09-01T12:52:27;23.20;99.90
21823;DHT22;11074;48.596;9.238;2022-09-01T12:55:15;23.50;99.90
21823;DHT22;11074;48.596;9.238;2022-09-01T12:57:54;23.50;99.90
21823;DHT22;11074;48.596;9.238;2022-09-01T13:00:24;23.60;99.90
21823;DHT22;11074;48.596;9.238;2022-09-01T13:05:35;23.10;99.90
21823;DHT22;11074;48.596;9.238;2022-09-01T13:08:09;22.90;99.90
21823;DHT22;11074;48.596;9.238;2022-09-01T13:10:43;22.70;99.90
21823;DHT22;11074;48.596;9.238;2022-09-01T13:13:12;22.70;99.90
21823;DHT22;11074;48.596;9.238;2022-09-01T13:15:41;22.60;99.90
21823;DHT22;11074;48.596;9.238;2022-09-01T13:18:12;22.60;99.90
21823;DHT22;11074;48.596;9.238;2022-09-01T13:20:39;22.50;99.90
21823;DHT22;11074;48.596;9.238;2022-09-01T13:23:08;22.50;99.90
21823;DHT22;11074;48.596;9.238;2022-09-01T13:25:34;22.60;99.90
21823;DHT22;11074;48.596;9.238;2022-09-01T13:28:00;22.70;99.90
21823;DHT22;11074;48.596;9.238;2022-09-01T13:30:28;22.70;99.90
21823;DHT22;11074;48.596;9.238;2022-09-01T13:32:55;22.80;99.90
21823;DHT22;11074;48.596;9.238;2022-09-01T13:35:22;22.80;99.90
21823;DHT22;11074;48.596;9.238;2022-09-01T13:37:48;22.80;99.90
21823;DHT22;11074;48.596;9.238;2022-09-01T13:40:16;22.80;99.90
21823;DHT22;11074;48.596;9.238;2022-09-01T13:42:44;22.70;99.90
21823;DHT22;11074;48.596;9.238;2022-09-01T13:45:13;22.70;99.90
21823;DHT22;11074;48.596;9.238;2022-09-01T13:47:42;22.70;99.90
21823;DHT22;11074;48.596;9.238;2022-09-01T13:50:11;22.80;99.90
21823;DHT22;11074;48.596;9.238;2022-09-01T13:52:42;22.80;99.90
21823;DHT22;11074;48.596;9.238;2022-09-01T13:55:13;22.80;99.90
21823;DHT22;11074;48.596;9.238;2022-09-01T13:57:41;22.80;99.90
21823;DHT22;11074;48.596;9.238;2022-09-01T14:00:10;22.80;99.90
21823;DHT22;11074;48.596;9.238;2022-09-01T14:02:41;22.80;99.90
21823;DHT22;11074;48.596;9.238;2022-09-01T14:05:16;22.90;99.90
21823;DHT22;11074;48.596;9.238;2022-09-01T14:07:44;22.90;99.90
21823;DHT22;11074;48.596;9.238;2022-09-01T14:10:10;22.90;99.90
21823;DHT22;11074;48.596;9.238;2022-09-01T14:12:37;22.90;99.90
21823;DHT22;11074;48.596;9.238;2022-09-01T14:15:04;23.00;99.90
21823;DHT22;11074;48.596;9.238;2022-09-01T14:17:30;23.10;99.90
21823;DHT22;11074;48.596;9.238;2022-09-01T14:19:56;23.10;99.90
21823;DHT22;11074;48.596;9.238;2022-09-01T14:22:21;23.20;99.90
21823;DHT22;11074;48.596;9.238;2022-09-01T14:24:47;23.30;99.90
21823;DHT22;11074;48.596;9.238;2022-09-01T14:27:13;23.20;99.90
21823;DHT22;11074;48.596;9.238;2022-09-01T14:29:39;23.20;99.90
21823;DHT22;11074;48.596;9.238;2022-09-01T14:32:04;23.20;99.90
21823;DHT22;11074;48.596;9.238;2022-09-01T14:34:32;23.10;99.90
21823;DHT22;11074;48.596;9.238;2022-09-01T14:36:59;23.10;99.90
21823;DHT22;11074;48.596;9.238;2022-09-01T14:39:25;22.90;99.90
21823;DHT22;11074;48.596;9.238;2022-09-01T14:41:50;22.90;99.90
21823;DHT22;11074;48.596;9.238;2022-09-01T14:44:16;22.90;99.90
21823;DHT22;11074;48.596;9.238;2022-09-01T14:46:42;22.90;99.90
21823;DHT22;11074;48.596;9.238;2022-09-01T14:49:08;22.90;99.90
21823;DHT22;11074;48.596;9.238;2022-09-01T14:51:35;23.00;99.90
21823;DHT22;11074;48.596;9.238;2022-09-01T14:54:02;23.10;99.90
21823;DHT22;11074;48.596;9.238;2022-09-01T14:56:28;23.10;99.90
21823;DHT22;11074;48.596;9.238;2022-09-01T14:58:55;23.10;99.90
21823;DHT22;11074;48.596;9.238;2022-09-01T15:01:25;23.20;99.90
21823;DHT22;11074;48.596;9.238;2022-09-01T15:03:52;23.30;99.90
21823;DHT22;11074;48.596;9.238;2022-09-01T15:06:19;23.50;99.90
21823;DHT22;11074;48.596;9.238;2022-09-01T15:08:47;23.60;99.90
21823;DHT22;11074;48.596;9.238;2022-09-01T15:11:17;23.50;99.90
21823;DHT22;11074;48.596;9.238;2022-09-01T15:13:44;23.50;99.90
21823;DHT22;11074;48.596;9.238;2022-09-01T15:16:22;23.50;99.90
21823;DHT22;11074;48.596;9.238;2022-09-01T15:18:50;23.50;99.90
21823;DHT22;11074;48.596;9.238;2022-09-01T15:21:19;23.60;99.90
21823;DHT22;11074;48.596;9.238;2022-09-01T15:23:59;23.70;99.90
21823;DHT22;11074;48.596;9.238;2022-09-01T15:26:27;23.70;99.90
21823;DHT22;11074;48.596;9.238;2022-09-01T15:28:53;23.80;99.90
21823;DHT22;11074;48.596;9.238;2022-09-01T15:31:20;23.90;99.90
21823;DHT22;11074;48.596;9.238;2022-09-01T15:33:46;23.90;99.90
21823;DHT22;11074;48.596;9.238;2022-09-01T15:36:17;23.90;99.90
21823;DHT22;11074;48.596;9.238;2022-09-01T15:38:46;23.90;99.90
21823;DHT22;11074;48.596;9.238;2022-09-01T15:41:16;23.90;99.90
21823;DHT22;11074;48.596;9.238;2022-09-01T15:43:47;23.90;99.90
21823;DHT22;11074;48.596;9.238;2022-09-01T15:46:13;23.90;99.90
21823;DHT22;11074;48.596;9.238;2022-09-01T15:48:39;23.90;99.90
21823;DHT22;11074;48.596;9.238;2022-09-01T15:53:49;24.10;99.90
21823;DHT22;11074;48.596;9.238;2022-09-01T15:56:16;24.10;99.90
21823;DHT22;11074;48.596;9.238;2022-09-01T15:58:46;24.20;99.90
21823;DHT22;11074;48.596;9.238;2022-09-01T16:01:14;24.30;99.90
21823;DHT22;11074;48.596;9.238;2022-09-01T16:03:40;24.20;99.90
21823;DHT22;11074;48.596;9.238;2022-09-01T16:06:06;24.10;99.90
21823;DHT22;11074;48.596;9.238;2022-09-01T16:08:33;24.10;99.90
21823;DHT22;11074;48.596;9.238;2022-09-01T16:11:00;24.10;99.90
21823;DHT22;11074;48.596;9.238;2022-09-01T16:13:37;24.00;99.90
21823;DHT22;11074;48.596;9.238;2022-09-01T16:24:52;24.00;99.90
21823;DHT22;11074;48.596;9.238;2022-09-01T16:27:21;24.00;99.90
21823;DHT22;11074;48.596;9.238;2022-09-01T16:30:18;23.90;99.90
21823;DHT22;11074;48.596;9.238;2022-09-01T16:32:47;23.80;99.90
21823;DHT22;11074;48.596;9.238;2022-09-01T16:35:15;23.70;99.90
21823;DHT22;11074;48.596;9.238;2022-09-01T16:37:55;23.60;99.90
21823;DHT22;11074;48.596;9.238;2022-09-01T16:41:08;23.50;99.90
21823;DHT22;11074;48.596;9.238;2022-09-01T16:47:03;23.40;99.90
21823;DHT22;11074;48.596;9.238;2022-09-01T16:53:02;23.10;99.90
21823;DHT22;11074;48.596;9.238;2022-09-01T16:59:01;22.70;99.90
21823;DHT22;11074;48.596;9.238;2022-09-01T17:10:24;22.40;99.90
21823;DHT22;11074;48.596;9.238;2022-09-01T17:13:15;22.40;99.90
21823;DHT22;11074;48.596;9.238;2022-09-01T17:16:02;22.20;99.90
21823;DHT22;11074;48.596;9.238;2022-09-01T17:18:43;22.20;99.90
21823;DHT22;11074;48.596;9.238;2022-09-01T17:21:20;22.20;99.90
21823;DHT22;11074;48.596;9.238;2022-09-01T17:24:06;22.20;99.90
21823;DHT22;11074;48.596;9.238;2022-09-01T17:26:56;22.20;99.90
21823;DHT22;11074;48.596;9.238;2022-09-01T17:35:44;22.00;99.90
21823;DHT22;11074;48.596;9.238;2022-09-01T17:38:31;21.90;99.90
21823;DHT22;11074;48.596;9.238;2022-09-01T17:41:29;21.90;99.90
21823;DHT22;11074;48.596;9.238;2022-09-01T17:44:55;21.90;99.90
21823;DHT22;11074;48.596;9.238;2022-09-01T17:56:45;21.50;99.90
21823;DHT22;11074;48.596;9.238;2022-09-01T18:03:13;21.30;99.90
21823;DHT22;11074;48.596;9.238;2022-09-01T18:08:37;20.90;99.90